Time;durP1;ratioP1;P1;durP2;ratioP2;P2;SDS_P1;SDS_P2;PMS_P1;PMS_P2;Temp;Humidity;BMP_temperature;BMP_pressure;BME280_temperature;BME280_humidity;BME280_pressure;Samples;Min_cycle;Max_cycle;Signal;HPM_P1;HPM_P2
2022/08/15 00:02:06;;;;;;;11.88;8.13;;;;;;;28.74;39.77;100371.44;5041019;28;20111;-52
2022/08/15 00:04:35;;;;;;;9.68;7.88;;;;;;;28.76;39.81;100393.41;5075244;28;20036;-53
2022/08/15 00:07:04;;;;;;;11.90;7.95;;;;;;;28.69;39.66;100389.13;5057039;28;20024;-55
2022/08/15 00:09:41;;;;;;;11.50;8.25;;;;;;;28.72;39.89;100380.25;5075290;28;20032;-51
2022/08/15 00:12:09;;;;;;;10.38;7.35;;;;;;;28.74;39.58;100382.00;5075124;28;20040;-51
2022/08/15 00:14:38;;;;;;;11.38;6.70;;;;;;;28.71;40.22;100368.81;5057090;28;20051;-53
2022/08/15 00:17:09;;;;;;;8.90;7.15;;;;;;;28.75;39.95;100374.97;5075022;28;20024;-53
2022/08/15 00:19:44;;;;;;;9.95;7.20;;;;;;;28.74;39.52;100373.22;5074902;28;20118;-51
2022/08/15 00:22:17;;;;;;;11.00;7.28;;;;;;;28.91;39.40;100371.19;5074532;28;20075;-54
2022/08/15 00:24:47;;;;;;;9.45;6.68;;;;;;;28.71;39.81;100370.59;5056888;28;20509;-53
2022/08/15 00:27:16;;;;;;;9.48;7.80;;;;;;;28.72;39.67;100364.44;5074624;28;20028;-53
2022/08/15 00:29:45;;;;;;;10.43;6.75;;;;;;;28.74;39.41;100367.94;5074808;28;20032;-52
2022/08/15 00:32:19;;;;;;;13.55;7.95;;;;;;;28.68;39.78;100366.25;5074248;28;20086;-53
2022/08/15 00:34:47;;;;;;;11.07;7.38;;;;;;;28.75;39.44;100372.34;5074186;28;20024;-52
2022/08/15 00:37:17;;;;;;;14.13;7.95;;;;;;;28.70;39.91;100371.50;5074397;28;20082;-51
2022/08/15 00:39:46;;;;;;;9.02;7.60;;;;;;;28.80;39.71;100371.34;5074622;28;20032;-53
2022/08/15 00:42:15;;;;;;;12.30;7.18;;;;;;;28.69;39.67;100367.13;5056512;28;20403;-51
2022/08/15 00:44:46;;;;;;;10.63;7.68;;;;;;;28.62;39.95;100359.31;5056618;28;20086;-53
2022/08/15 00:47:20;;;;;;;11.35;8.40;;;;;;;28.74;39.82;100368.81;5056390;28;20023;-52
2022/08/15 00:49:49;;;;;;;12.40;9.20;;;;;;;28.75;39.50;100361.78;5056625;28;20438;-54
2022/08/15 00:52:24;;;;;;;12.45;8.60;;;;;;;28.75;39.47;100367.91;5042032;28;20088;-53
2022/08/15 00:54:59;;;;;;;12.20;8.50;;;;;;;28.58;39.47;100378.72;5033134;28;20091;-53
2022/08/15 00:57:34;;;;;;;11.98;9.10;;;;;;;28.40;40.09;100360.53;5033091;28;20017;-54
2022/08/15 01:00:09;;;;;;;13.32;10.13;;;;;;;28.47;39.83;100367.44;5032976;28;20503;-52
2022/08/15 01:02:38;;;;;;;12.65;8.35;;;;;;;28.57;39.57;100366.41;5034234;28;20034;-53
2022/08/15 01:05:10;;;;;;;12.93;8.80;;;;;;;28.63;39.25;100370.72;5032965;28;20477;-54
2022/08/15 01:07:38;;;;;;;11.05;8.85;;;;;;;28.62;39.46;100361.06;5032834;28;20021;-52
2022/08/15 01:10:08;;;;;;;13.52;7.95;;;;;;;28.59;39.68;100367.28;5034097;28;20018;-53
2022/08/15 01:12:37;;;;;;;11.57;8.95;;;;;;;28.56;39.37;100359.41;5033979;28;20100;-54
2022/08/15 01:15:09;;;;;;;12.60;9.32;;;;;;;28.50;39.66;100360.38;5032583;28;20032;-53
2022/08/15 01:17:37;;;;;;;10.93;7.80;;;;;;;28.39;39.60;100359.66;5033979;28;20061;-50
2022/08/15 01:20:11;;;;;;;13.40;9.95;;;;;;;28.53;39.45;100355.94;5033671;28;20022;-51
2022/08/15 01:23:17;;;;;;;12.35;9.23;;;;;;;28.53;39.71;100358.59;5032528;28;20033;-50
2022/08/15 01:25:58;;;;;;;10.73;7.55;;;;;;;28.41;39.89;100360.50;5028931;28;20045;-51
2022/08/15 01:28:31;;;;;;;15.68;9.18;;;;;;;28.31;39.90;100358.91;5033776;28;20025;-50
2022/08/15 01:31:05;;;;;;;8.40;7.32;;;;;;;28.35;39.65;100350.91;5032530;28;20080;-52
2022/08/15 01:33:39;;;;;;;11.73;8.63;;;;;;;28.41;39.83;100351.72;5033438;28;20549;-49
2022/08/15 01:36:08;;;;;;;11.07;8.30;;;;;;;28.47;39.42;100348.97;5033441;28;20033;-50
2022/08/15 01:38:39;;;;;;;10.05;8.45;;;;;;;28.51;39.18;100345.41;5033454;28;20051;-53
2022/08/15 01:41:14;;;;;;;13.00;8.32;;;;;;;28.45;39.42;100340.25;5032217;28;20357;-52
2022/08/15 01:43:48;;;;;;;10.32;8.25;;;;;;;28.58;39.35;100357.63;5032275;28;20064;-51
2022/08/15 01:46:17;;;;;;;11.32;7.78;;;;;;;28.48;39.50;100348.09;5031521;28;20025;-53
2022/08/15 01:48:49;;;;;;;10.82;7.18;;;;;;;28.51;39.45;100355.94;5033394;28;20025;-53
2022/08/15 01:51:18;;;;;;;9.63;7.15;;;;;;;28.44;39.63;100349.91;5036025;28;20025;-52
2022/08/15 01:53:54;;;;;;;8.98;7.07;;;;;;;28.41;39.79;100352.59;5055021;28;20182;-51
2022/08/15 01:56:26;;;;;;;8.38;7.40;;;;;;;28.40;39.64;100348.19;5055004;28;20507;-51
2022/08/15 01:58:54;;;;;;;9.93;7.60;;;;;;;28.37;40.03;100342.13;5055247;28;20107;-52
2022/08/15 02:01:42;;;;;;;11.55;7.03;;;;;;;28.45;39.75;100341.09;5072640;28;20021;-49
2022/08/15 02:04:12;;;;;;;9.20;7.18;;;;;;;28.56;39.22;100333.00;5039806;28;20094;-52
2022/08/15 02:06:43;;;;;;;10.45;7.32;;;;;;;28.48;39.50;100335.78;5072495;28;20021;-49
2022/08/15 02:09:18;;;;;;;9.07;7.25;;;;;;;28.28;40.03;100343.13;5072734;28;20024;-54
2022/08/15 02:11:48;;;;;;;11.70;7.65;;;;;;;28.35;39.80;100329.81;5055176;28;20102;-54
2022/08/15 02:14:16;;;;;;;11.77;7.30;;;;;;;28.57;38.76;100336.50;5072558;28;20032;-54
2022/08/15 02:16:45;;;;;;;8.88;7.28;;;;;;;28.60;39.17;100340.00;5072889;28;20051;-53
2022/08/15 02:19:15;;;;;;;13.43;7.13;;;;;;;28.59;39.12;100353.19;5072485;28;20043;-53
2022/08/15 02:21:46;;;;;;;10.15;6.80;;;;;;;28.52;38.96;100351.56;5054505;28;20372;-50
2022/08/15 02:24:21;;;;;;;10.15;7.82;;;;;;;28.34;39.43;100349.16;5072478;28;20020;-53
2022/08/15 02:26:52;;;;;;;8.30;6.32;;;;;;;28.42;39.45;100346.41;5072343;28;20035;-52
2022/08/15 02:29:26;;;;;;;10.38;6.43;;;;;;;28.40;39.24;100345.56;5072383;28;20024;-54
2022/08/15 02:31:57;;;;;;;9.95;6.88;;;;;;;28.32;39.41;100345.69;5054902;28;20029;-54
2022/08/15 02:34:26;;;;;;;8.48;6.60;;;;;;;28.38;39.49;100344.72;5072633;28;20533;-55
2022/08/15 02:36:55;;;;;;;8.90;7.20;;;;;;;28.45;38.75;100334.97;5072135;28;20029;-53
2022/08/15 02:39:24;;;;;;;8.57;6.85;;;;;;;28.39;39.42;100337.69;5072306;28;20030;-53
2022/08/15 02:41:52;;;;;;;9.05;7.13;;;;;;;28.25;39.70;100333.50;5072121;28;20032;-53
2022/08/15 02:44:22;;;;;;;8.68;6.38;;;;;;;28.34;39.17;100332.50;5072553;28;20535;-54
2022/08/15 02:46:54;;;;;;;7.32;6.55;;;;;;;28.19;39.58;100329.19;5072627;28;20024;-52
2022/08/15 02:49:24;;;;;;;7.47;6.07;;;;;;;28.24;39.52;100322.94;5072476;28;20028;-49
2022/08/15 02:51:53;;;;;;;8.00;6.35;;;;;;;28.26;39.38;100326.44;5072001;28;20149;-53
2022/08/15 02:54:26;;;;;;;6.78;5.85;;;;;;;28.22;39.61;100332.66;5071975;28;20054;-53
2022/08/15 02:56:56;;;;;;;7.40;6.57;;;;;;;28.14;39.67;100330.13;5072067;28;20025;-53
2022/08/15 02:59:25;;;;;;;8.23;6.32;;;;;;;28.10;39.82;100334.59;5075420;28;20025;-53
2022/08/15 03:01:53;;;;;;;9.02;6.45;;;;;;;28.22;39.03;100325.63;5075747;28;20029;-52
2022/08/15 03:04:23;;;;;;;6.97;6.18;;;;;;;28.23;39.51;100334.41;5058257;28;20029;-53
2022/08/15 03:06:53;;;;;;;8.05;6.22;;;;;;;28.18;39.40;100329.19;5058316;28;20032;-53
2022/08/15 03:09:23;;;;;;;9.38;5.85;;;;;;;28.19;39.49;100326.56;5075891;28;20031;-53
2022/08/15 03:11:51;;;;;;;5.65;4.93;;;;;;;28.32;39.17;100329.00;5076119;28;20024;-52
2022/08/15 03:14:22;;;;;;;7.55;5.65;;;;;;;28.19;39.50;100323.03;5076038;28;20060;-53
2022/08/15 03:16:51;;;;;;;7.05;5.40;;;;;;;28.24;39.53;100320.31;5075692;28;20490;-49
2022/08/15 03:19:25;;;;;;;6.00;5.22;;;;;;;28.16;39.51;100323.06;5058191;28;20029;-49
2022/08/15 03:21:54;;;;;;;7.30;5.53;;;;;;;28.06;39.75;100317.03;5057852;28;20398;-50
2022/08/15 03:24:23;;;;;;;8.77;5.65;;;;;;;28.00;39.86;100322.41;5075670;28;20185;-50
2022/08/15 03:26:51;;;;;;;7.53;6.10;;;;;;;28.04;40.07;100317.06;5075782;28;20437;-48
2022/08/15 03:29:21;;;;;;;7.00;5.00;;;;;;;28.01;40.09;100318.88;5075874;28;20493;-54
2022/08/15 03:31:52;;;;;;;7.22;5.20;;;;;;;28.00;40.03;100314.50;5075447;28;20548;-53
2022/08/15 03:34:23;;;;;;;7.40;5.38;;;;;;;28.10;39.78;100324.03;5075819;28;20405;-51
2022/08/15 03:36:51;;;;;;;8.40;5.93;;;;;;;28.11;39.65;100323.16;5075531;28;20024;-53
2022/08/15 03:39:20;;;;;;;5.85;4.82;;;;;;;28.14;39.73;100316.94;5075514;28;20059;-49
2022/08/15 03:41:49;;;;;;;7.05;5.95;;;;;;;28.26;39.46;100329.97;5075247;28;20032;-49
2022/08/15 03:44:17;;;;;;;8.98;6.13;;;;;;;28.39;39.07;100327.13;5075575;28;20064;-49
2022/08/15 03:46:46;;;;;;;6.72;5.32;;;;;;;28.33;39.18;100322.84;5075474;28;20090;-50
2022/08/15 03:49:15;;;;;;;8.38;5.30;;;;;;;28.23;39.35;100318.56;5075153;28;20020;-50
2022/08/15 03:51:44;;;;;;;6.45;5.20;;;;;;;28.30;39.02;100321.09;5075245;28;20045;-53
2022/08/15 03:54:12;;;;;;;6.82;4.85;;;;;;;28.42;38.96;100322.66;5075116;28;20024;-52
2022/08/15 03:56:42;;;;;;;6.50;5.35;;;;;;;28.33;39.25;100315.78;5074884;28;20494;-52
2022/08/15 03:59:11;;;;;;;6.13;5.45;;;;;;;28.23;39.40;100301.00;5075353;28;20035;-51
2022/08/15 04:01:42;;;;;;;6.13;5.53;;;;;;;28.13;39.74;100302.91;5075240;28;20035;-50
2022/08/15 04:04:10;;;;;;;6.65;5.70;;;;;;;28.05;40.39;100296.81;5074906;28;20029;-50
2022/08/15 04:06:40;;;;;;;6.93;5.78;;;;;;;28.05;39.86;100297.72;5057171;28;20402;-51
2022/08/15 04:09:10;;;;;;;6.38;5.38;;;;;;;28.12;39.68;100297.66;5074410;28;20024;-52
2022/08/15 04:11:37;;;;;;;7.20;5.97;;;;;;;28.01;40.17;100298.66;5074447;28;20032;-53
2022/08/15 04:14:07;;;;;;;5.97;5.38;;;;;;;28.01;40.12;100292.50;5074977;28;20081;-52
2022/08/15 04:16:38;;;;;;;7.22;5.75;;;;;;;28.00;40.15;100306.59;5075087;28;20028;-53
2022/08/15 04:19:07;;;;;;;6.35;5.28;;;;;;;28.03;39.90;100302.13;5057136;28;20390;-52
2022/08/15 04:21:35;;;;;;;6.07;5.10;;;;;;;28.05;39.81;100310.91;5074675;28;20112;-49
2022/08/15 04:24:04;;;;;;;7.43;6.03;;;;;;;28.15;39.66;100300.22;5074781;28;20491;-53
2022/08/15 04:26:34;;;;;;;8.45;5.13;;;;;;;28.14;39.69;100296.75;5074887;28;20032;-49
2022/08/15 04:29:03;;;;;;;6.57;5.38;;;;;;;28.05;39.79;100300.34;5074701;28;20028;-51
2022/08/15 04:31:31;;;;;;;6.95;5.03;;;;;;;28.06;39.87;100293.28;5074774;28;20475;-49
2022/08/15 04:34:00;;;;;;;6.63;5.50;;;;;;;27.97;40.18;100291.66;5074528;28;20037;-52
2022/08/15 04:36:28;;;;;;;5.93;5.28;;;;;;;27.98;40.14;100296.03;5056689;28;20433;-53
2022/08/15 04:38:55;;;;;;;6.43;5.22;;;;;;;28.01;39.94;100292.50;5056651;28;20025;-53
2022/08/15 04:41:23;;;;;;;8.00;5.78;;;;;;;28.00;40.23;100304.81;5074224;28;20023;-51
2022/08/15 04:43:52;;;;;;;6.03;5.38;;;;;;;27.86;40.27;100272.50;5056829;28;20483;-53
2022/08/15 04:46:20;;;;;;;9.50;5.20;;;;;;;27.89;40.38;100281.22;5073899;28;20039;-50
2022/08/15 04:48:49;;;;;;;6.70;5.68;;;;;;;27.99;40.24;100278.47;5074421;28;20541;-53
2022/08/15 04:51:16;;;;;;;7.45;5.57;;;;;;;27.98;39.98;100276.75;5073872;28;20024;-54
2022/08/15 04:53:46;;;;;;;6.82;5.22;;;;;;;28.04;40.41;100290.69;5074378;28;20102;-54
2022/08/15 04:56:14;;;;;;;7.22;5.60;;;;;;;28.01;40.24;100290.75;5074353;28;20016;-53
2022/08/15 04:58:42;;;;;;;7.97;5.45;;;;;;;27.99;40.09;100295.16;5056331;28;20024;-52
2022/08/15 05:01:12;;;;;;;6.20;5.60;;;;;;;28.07;39.94;100294.19;5073908;28;20478;-53
2022/08/15 05:03:41;;;;;;;7.43;6.10;;;;;;;28.04;39.95;100298.59;5074151;28;20095;-52
2022/08/15 05:06:11;;;;;;;8.85;6.40;;;;;;;27.99;40.44;100297.78;5074035;28;20035;-53
2022/08/15 05:08:40;;;;;;;8.80;6.57;;;;;;;28.07;40.04;100299.47;5074066;28;20028;-52
2022/08/15 05:11:12;;;;;;;8.52;5.80;;;;;;;28.14;39.89;100294.09;5073653;28;20111;-52
2022/08/15 05:13:41;;;;;;;7.43;5.68;;;;;;;28.12;39.79;100303.78;5055946;28;20055;-52
2022/08/15 05:16:10;;;;;;;7.80;6.25;;;;;;;28.06;39.97;100301.22;5073662;28;20031;-54
2022/08/15 05:18:40;;;;;;;8.55;6.20;;;;;;;28.07;40.13;100304.72;5073865;28;20028;-53
2022/08/15 05:21:10;;;;;;;9.90;7.18;;;;;;;28.00;40.19;100299.53;5072662;28;20028;-51
2022/08/15 05:23:40;;;;;;;8.13;6.20;;;;;;;27.96;40.50;100313.69;5039179;28;20032;-53
2022/08/15 05:26:09;;;;;;;12.68;5.85;;;;;;;28.18;39.92;100310.75;5073770;28;20039;-51
2022/08/15 05:28:38;;;;;;;8.55;6.60;;;;;;;28.11;39.64;100315.25;5073417;28;20104;-49
2022/08/15 05:31:08;;;;;;;9.50;6.68;;;;;;;28.15;40.06;100316.06;5073557;28;20025;-50
2022/08/15 05:33:37;;;;;;;8.50;6.90;;;;;;;27.96;40.45;100305.78;5073244;28;20033;-53
2022/08/15 05:36:08;;;;;;;8.88;6.43;;;;;;;27.98;40.36;100329.47;5073690;28;20024;-50
2022/08/15 05:38:48;;;;;;;9.75;6.43;;;;;;;28.08;40.32;100317.03;5073436;28;20033;-53
2022/08/15 05:41:40;;;;;;;6.72;6.03;;;;;;;28.03;40.27;100317.97;5055803;28;20470;-52
2022/08/15 05:44:34;;;;;;;9.85;6.90;;;;;;;28.08;40.31;100320.50;5055658;28;20029;-50
2022/08/15 05:47:21;;;;;;;8.55;6.32;;;;;;;28.02;40.31;100313.56;5072766;28;20035;-51
2022/08/15 05:49:54;;;;;;;9.98;6.32;;;;;;;27.98;40.59;100309.22;5073076;28;20064;-51
2022/08/15 05:52:29;;;;;;;12.20;6.97;;;;;;;27.98;40.82;100313.66;5072585;28;20131;-53
2022/08/15 05:55:02;;;;;;;9.60;5.75;;;;;;;27.97;40.70;100304.00;5073215;28;20029;-50
2022/08/15 05:57:37;;;;;;;12.45;6.82;;;;;;;27.98;40.59;100306.59;5055412;28;20036;-53
2022/08/15 06:00:10;;;;;;;8.27;6.38;;;;;;;28.01;40.65;100303.06;5038650;28;20032;-53
2022/08/15 06:02:43;;;;;;;13.57;6.47;;;;;;;28.05;40.57;100305.63;5055355;28;20036;-53
2022/08/15 06:05:16;;;;;;;10.65;6.38;;;;;;;28.09;40.54;100301.16;5072521;28;20387;-52
2022/08/15 06:07:48;;;;;;;11.25;6.60;;;;;;;27.99;40.48;100305.69;5072714;28;20401;-50
2022/08/15 06:10:29;;;;;;;14.02;7.20;;;;;;;28.04;40.57;100306.53;5055038;28;20031;-51
2022/08/15 06:13:11;;;;;;;8.60;6.18;;;;;;;27.97;40.96;100318.03;5054964;28;20029;-51
2022/08/15 06:15:51;;;;;;;11.75;6.10;;;;;;;28.08;40.56;100322.28;5072694;28;20056;-53
2022/08/15 06:18:21;;;;;;;9.55;6.43;;;;;;;28.10;40.50;100320.53;5073039;28;20067;-53
2022/08/15 06:21:00;;;;;;;11.45;6.50;;;;;;;28.07;40.76;100315.28;5054887;28;20029;-53
2022/08/15 06:23:47;;;;;;;10.95;6.57;;;;;;;28.05;40.81;100313.53;5072434;28;20043;-53
2022/08/15 06:26:24;;;;;;;9.32;6.40;;;;;;;28.07;40.84;100312.63;5072305;28;20058;-53
2022/08/15 06:29:31;;;;;;;8.30;5.85;;;;;;;28.11;40.33;100303.84;5072139;28;20028;-53
2022/08/15 06:32:22;;;;;;;13.15;7.82;;;;;;;28.01;41.36;100298.66;5068176;28;20115;-53
2022/08/15 06:34:55;;;;;;;14.73;7.35;;;;;;;28.12;40.91;100308.22;5072652;28;20025;-54
2022/08/15 06:37:32;;;;;;;12.07;7.13;;;;;;;27.72;42.29;100305.19;5072331;28;20420;-53
2022/08/15 06:40:28;;;;;;;17.58;7.30;;;;;;;27.78;42.49;100306.88;5054935;28;20034;-51
2022/08/15 06:42:57;;;;;;;13.77;7.47;;;;;;;27.94;41.65;100318.09;5072220;28;20048;-54
2022/08/15 06:45:35;;;;;;;11.75;6.93;;;;;;;27.88;42.02;100312.91;5054461;28;20024;-54
2022/08/15 06:48:08;;;;;;;15.90;7.22;;;;;;;27.93;42.36;100319.00;5054720;28;20028;-56
2022/08/15 06:50:41;;;;;;;17.17;8.32;;;;;;;27.97;42.59;100328.56;5072322;28;20410;-53
2022/08/15 06:53:19;;;;;;;15.82;7.72;;;;;;;27.71;43.09;100302.59;5072148;28;20041;-55
2022/08/15 06:56:12;;;;;;;12.63;7.40;;;;;;;27.97;42.49;100301.34;5055919;28;20097;-54
2022/08/15 06:59:00;;;;;;;18.63;8.10;;;;;;;28.06;42.31;100311.75;5072041;28;20035;-53
2022/08/15 07:01:48;;;;;;;13.95;7.65;;;;;;;28.09;42.61;100302.94;5063602;28;20407;-52
2022/08/15 07:04:34;;;;;;;12.73;6.80;;;;;;;28.16;42.11;100305.50;5054118;28;20097;-54
2022/08/15 07:07:09;;;;;;;20.05;8.40;;;;;;;28.17;42.64;100312.53;5060796;28;20039;-53
2022/08/15 07:09:56;;;;;;;13.68;7.72;;;;;;;28.18;42.43;100318.66;5071785;28;20391;-52
2022/08/15 07:12:31;;;;;;;17.10;7.88;;;;;;;28.15;42.76;100326.59;5071468;28;20071;-51
2022/08/15 07:15:05;;;;;;;14.35;6.93;;;;;;;28.02;42.85;100320.63;5071790;28;20123;-52
2022/08/15 07:17:40;;;;;;;16.63;7.70;;;;;;;28.14;42.94;100325.75;5071746;28;20024;-51
2022/08/15 07:20:10;;;;;;;21.85;9.07;;;;;;;28.14;42.83;100328.38;5053978;28;20078;-51
2022/08/15 07:22:39;;;;;;;17.33;7.78;;;;;;;27.86;43.26;100317.31;5053873;28;20043;-52
2022/08/15 07:25:13;;;;;;;19.67;8.43;;;;;;;28.02;43.01;100320.63;5071534;28;20107;-50
2022/08/15 07:27:42;;;;;;;21.33;7.57;;;;;;;27.99;43.13;100328.56;5071579;28;20383;-53
2022/08/15 07:30:21;;;;;;;16.20;7.90;;;;;;;28.02;43.48;100326.75;5071428;28;20032;-53
2022/08/15 07:32:52;;;;;;;18.95;8.43;;;;;;;27.92;43.36;100324.25;5054007;28;20028;-51
2022/08/15 07:35:24;;;;;;;15.10;7.13;;;;;;;27.97;43.26;100335.63;5071656;28;20021;-53
2022/08/15 07:37:56;;;;;;;15.90;7.63;;;;;;;28.04;43.32;100339.94;5071880;28;20024;-53
2022/08/15 07:40:27;;;;;;;21.92;8.10;;;;;;;27.50;44.82;100332.69;5037305;28;20028;-53
2022/08/15 07:42:54;;;;;;;13.68;6.40;;;;;;;27.69;44.07;100344.75;5071404;28;20111;-54
2022/08/15 07:45:39;;;;;;;12.82;7.20;;;;;;;27.90;43.87;100343.59;5073363;28;20100;-52
2022/08/15 07:48:24;;;;;;;14.13;7.67;;;;;;;27.68;44.68;100332.47;5057889;28;20532;-50
2022/08/15 07:51:07;;;;;;;15.40;7.25;;;;;;;27.91;44.29;100336.59;5074685;28;20364;-53
2022/08/15 07:53:35;;;;;;;12.57;7.00;;;;;;;27.97;43.96;100341.75;5057374;28;20053;-53
2022/08/15 07:56:16;;;;;;;13.25;7.70;;;;;;;27.89;44.33;100356.81;5057473;28;20063;-52
2022/08/15 07:58:44;;;;;;;16.45;7.95;;;;;;;27.98;44.25;100351.41;5074675;28;20020;-52
2022/08/15 08:01:22;;;;;;;14.40;7.05;;;;;;;27.77;44.96;100349.94;5074859;28;20028;-54
2022/08/15 08:03:58;;;;;;;14.93;6.88;;;;;;;27.75;45.29;100338.53;5074996;28;20024;-49
2022/08/15 08:06:36;;;;;;;12.93;6.43;;;;;;;27.97;44.49;100325.09;5075031;28;20033;-54
2022/08/15 08:09:10;;;;;;;17.92;7.72;;;;;;;27.81;44.89;100322.66;5057244;28;20020;-50
2022/08/15 08:11:44;;;;;;;16.25;6.72;;;;;;;27.94;44.31;100318.09;5056835;28;20337;-50
2022/08/15 08:14:14;;;;;;;;;;;;;;;28.15;44.24;100321.31;5075317;28;20024;-51
2022/08/15 08:16:53;;;;;;;13.27;6.38;;;;;;;28.11;44.06;100315.25;5074533;28;19956;-52
2022/08/15 08:19:24;;;;;;;11.80;6.72;;;;;;;27.89;44.73;100318.13;5071824;28;20440;-56
2022/08/15 08:21:54;;;;;;;15.13;6.15;;;;;;;27.80;44.95;100318.28;5065212;28;20064;-55
2022/08/15 08:24:59;;;;;;;13.85;6.45;;;;;;;28.01;44.36;100314.47;5063123;28;20066;-55
2022/08/15 08:27:45;;;;;;;;;;;;;;;27.80;45.45;100315.63;5043500;28;20040;-56
2022/08/15 08:30:19;;;;;;;14.63;6.75;;;;;;;27.48;46.21;100302.88;5059750;28;19987;-55
2022/08/15 08:33:06;;;;;;;12.20;6.20;;;;;;;27.58;46.07;100299.25;5040724;28;20024;-55
2022/08/15 08:35:45;;;;;;;16.15;6.10;;;;;;;27.53;45.87;100301.06;5049035;28;20094;-55
2022/08/15 08:38:35;;;;;;;15.00;7.03;;;;;;;27.66;45.57;100302.63;5065337;28;20025;-54
2022/08/15 08:41:36;;;;;;;11.38;5.50;;;;;;;28.04;44.33;100306.53;5037660;28;20033;-54
2022/08/15 08:44:14;;;;;;;11.43;5.72;;;;;;;28.04;44.31;100309.16;5041987;28;20482;-52
2022/08/15 08:46:50;;;;;;;13.55;6.03;;;;;;;27.83;45.13;100304.19;5067065;28;20115;-54
2022/08/15 08:49:41;;;;;;;11.32;5.53;;;;;;;27.75;45.18;100305.16;5033114;28;20360;-53
2022/08/15 08:52:25;;;;;;;11.65;5.95;;;;;;;27.78;44.94;100295.47;5060327;28;20407;-54
2022/08/15 08:55:07;;;;;;;12.27;6.18;;;;;;;27.99;44.52;100310.13;5070274;28;20098;-54
2022/08/15 08:57:54;;;;;;;8.68;5.75;;;;;;;27.99;44.54;100325.94;5064294;28;20101;-53
2022/08/15 09:00:24;;;;;;;11.68;6.25;;;;;;;28.19;43.66;100333.59;5018570;28;20095;-52
2022/08/15 09:02:54;;;;;;;10.43;5.80;;;;;;;28.25;43.72;100328.22;5070360;28;20036;-54
2022/08/15 09:05:28;;;;;;;11.27;6.10;;;;;;;28.36;43.68;100328.06;5052198;28;20040;-54
2022/08/15 09:08:01;;;;;;;10.70;5.88;;;;;;;28.11;44.00;100327.56;5070234;28;20039;-54
2022/08/15 09:10:32;;;;;;;10.20;5.38;;;;;;;28.16;43.87;100325.72;5051076;28;20032;-52
2022/08/15 09:13:45;;;;;;;10.48;5.63;;;;;;;28.22;43.88;100327.38;5060241;28;20123;-56
2022/08/15 09:15:51;;;;;;;12.55;5.68;;;;;;;28.35;43.44;100321.91;5054623;28;20437;-54
2022/08/15 09:18:26;;;;;;;12.55;6.28;;;;;;;28.49;43.31;100323.44;5066067;28;20467;-54
2022/08/15 09:20:56;;;;;;;9.02;5.20;;;;;;;28.22;43.57;100328.28;5064070;28;20104;-53
2022/08/15 09:23:25;;;;;;;11.13;5.47;;;;;;;28.26;43.71;100344.91;5044520;28;20033;-55
2022/08/15 09:26:11;;;;;;;10.23;5.22;;;;;;;28.27;43.24;100344.91;5046121;28;20029;-53
2022/08/15 09:28:44;;;;;;;12.40;5.57;;;;;;;28.27;43.42;100351.94;5055708;28;20037;-54
2022/08/15 09:31:17;;;;;;;9.18;5.00;;;;;;;28.30;43.44;100344.81;5066579;28;20060;-53
2022/08/15 09:34:17;;;;;;;10.93;4.82;;;;;;;28.26;43.40;100351.06;5045884;28;20107;-55
2022/08/15 09:37:09;;;;;;;10.38;4.57;;;;;;;28.18;43.55;100350.28;5053644;28;20048;-54
2022/08/15 09:40:15;;;;;;;8.75;5.00;;;;;;;28.24;43.74;100352.84;5043020;28;20041;-53
2022/08/15 09:43:02;;;;;;;7.25;4.63;;;;;;;28.35;43.18;100347.44;5049381;28;20072;-54
2022/08/15 09:45:56;;;;;;;9.73;4.47;;;;;;;28.30;43.18;100358.03;5054912;28;20043;-55
2022/08/15 09:48:33;;;;;;;8.60;3.97;;;;;;;28.42;42.98;100350.84;5037446;28;20123;-54
2022/08/15 09:51:39;;;;;;;10.60;5.13;;;;;;;28.31;43.25;100356.28;5059377;28;20414;-52
2022/08/15 09:54:28;;;;;;;10.07;4.90;;;;;;;28.15;43.32;100352.97;5051970;28;20094;-52
2022/08/15 09:57:18;;;;;;;9.30;4.60;;;;;;;28.32;43.13;100353.59;5044998;28;20498;-54
2022/08/15 09:59:52;;;;;;;8.68;4.95;;;;;;;28.38;42.72;100359.69;5051340;28;20064;-55
2022/08/15 10:02:22;;;;;;;10.13;4.47;;;;;;;28.34;42.97;100357.09;5060012;28;20037;-55
2022/08/15 10:05:10;;;;;;;7.60;4.55;;;;;;;28.31;42.80;100356.28;5040711;28;20510;-54
2022/08/15 10:07:46;;;;;;;12.32;4.80;;;;;;;28.37;42.96;100342.13;5057026;28;20488;-53
2022/08/15 10:10:41;;;;;;;6.47;4.55;;;;;;;28.17;43.24;100328.34;5062242;28;20035;-52
2022/08/15 10:13:10;;;;;;;9.52;5.50;;;;;;;28.01;44.51;100325.00;5042432;28;20074;-50
2022/08/15 10:15:43;;;;;;;8.73;4.85;;;;;;;28.11;43.74;100327.56;5061128;28;20039;-53
2022/08/15 10:18:31;;;;;;;7.22;3.92;;;;;;;28.27;43.15;100334.34;5060810;28;20133;-53
2022/08/15 10:21:21;;;;;;;8.63;4.03;;;;;;;28.41;42.99;100335.91;5060244;28;20033;-53
2022/08/15 10:23:51;;;;;;;12.65;4.53;;;;;;;28.46;42.77;100332.28;5057255;28;20391;-53
2022/08/15 10:26:28;;;;;;;6.35;4.20;;;;;;;28.48;42.32;100341.06;5057492;28;20063;-52
2022/08/15 10:29:08;;;;;;;9.07;4.10;;;;;;;28.46;42.59;100349.91;5039439;28;20527;-52
2022/08/15 10:31:56;;;;;;;8.90;4.25;;;;;;;28.35;42.67;100336.88;5060074;28;20089;-54
2022/08/15 10:34:37;;;;;;;6.95;3.83;;;;;;;28.26;43.05;100343.16;5039124;28;20433;-50
2022/08/15 10:37:30;;;;;;;10.98;4.13;;;;;;;28.31;42.79;100345.72;5043779;28;20031;-51
2022/08/15 10:40:17;;;;;;;7.20;3.60;;;;;;;28.42;42.69;100335.88;5051809;28;20028;-53
2022/08/15 10:42:51;;;;;;;8.52;3.78;;;;;;;28.47;42.43;100339.31;5060356;28;20119;-53
2022/08/15 10:45:27;;;;;;;10.63;4.28;;;;;;;28.46;42.71;100340.22;5043992;28;20032;-51
2022/08/15 10:48:27;;;;;;;8.93;3.85;;;;;;;28.43;42.73;100342.03;5040573;28;20047;-52
2022/08/15 10:51:34;;;;;;;10.57;4.07;;;;;;;28.07;43.84;100342.50;5055365;28;20390;-52
2022/08/15 10:54:09;;;;;;;8.73;4.00;;;;;;;28.12;43.92;100348.63;5048568;28;20153;-54
2022/08/15 10:56:38;;;;;;;;;;;;;;;28.35;43.80;100355.34;5059280;28;20060;-53
2022/08/15 10:59:18;;;;;;;13.25;5.13;;;;;;;28.35;44.35;100345.66;5040458;28;20352;-55
2022/08/15 11:01:46;;;;;;;11.68;4.55;;;;;;;28.23;44.42;100353.75;5060992;28;20025;-54
2022/08/15 11:04:25;;;;;;;8.98;5.03;;;;;;;28.31;44.12;100348.34;5060544;28;20051;-54
2022/08/15 11:06:53;;;;;;;8.10;3.85;;;;;;;28.46;44.11;100339.34;5042188;28;20057;-54
2022/08/15 11:09:23;;;;;;;8.45;4.28;;;;;;;28.54;44.13;100341.88;5061231;28;20061;-54
2022/08/15 11:11:57;;;;;;;11.05;4.03;;;;;;;28.54;43.55;100341.88;5059169;28;20037;-53
2022/08/15 11:14:28;;;;;;;8.13;4.07;;;;;;;28.74;43.29;100328.34;5061506;28;20031;-54
2022/08/15 11:16:58;;;;;;;9.52;4.40;;;;;;;28.78;43.01;100341.47;5044548;28;20025;-53
2022/08/15 11:19:38;;;;;;;6.53;3.75;;;;;;;28.83;43.15;100336.09;5063462;28;20028;-54
2022/08/15 11:22:08;;;;;;;12.57;4.35;;;;;;;28.71;43.40;100342.41;5058331;28;20029;-55
2022/08/15 11:24:38;;;;;;;8.30;4.15;;;;;;;28.72;43.32;100330.97;5044698;28;20017;-54
2022/08/15 11:27:13;;;;;;;6.00;3.50;;;;;;;28.86;43.53;100343.97;5027197;28;20055;-51
2022/08/15 11:29:41;;;;;;;;;;;;;;;28.81;43.20;100335.25;5063000;28;20078;-52
2022/08/15 11:32:08;;;;;;;7.90;4.13;;;;;;;28.63;43.27;100336.41;5045312;28;19919;-50
2022/08/15 11:34:41;;;;;;;9.38;3.58;;;;;;;28.47;43.75;100338.41;5030839;28;20051;-48
2022/08/15 11:37:29;;;;;;;10.48;4.30;;;;;;;28.61;43.49;100331.19;5063616;28;20033;-51
2022/08/15 11:40:20;;;;;;;5.70;3.30;;;;;;;28.63;42.90;100313.53;5056225;28;20369;-51
2022/08/15 11:42:49;;;;;;;7.95;3.55;;;;;;;28.56;42.79;100327.72;5061754;28;20594;-51
2022/08/15 11:45:22;;;;;;;10.68;4.20;;;;;;;28.53;43.28;100321.66;5046052;28;20552;-51
2022/08/15 11:47:54;;;;;;;9.43;3.67;;;;;;;28.49;43.07;100312.88;5047036;28;20039;-51
2022/08/15 11:50:33;;;;;;;9.55;3.85;;;;;;;28.46;43.22;100339.34;5065862;28;20024;-50
2022/08/15 11:53:04;;;;;;;12.55;3.65;;;;;;;28.29;44.11;100332.56;5044877;28;20041;-51
2022/08/15 11:55:32;;;;;;;13.20;3.70;;;;;;;28.40;44.08;100328.88;5065140;28;20149;-47
2022/08/15 11:58:20;;;;;;;11.75;4.43;;;;;;;28.56;43.85;100332.13;5062446;28;20056;-50